sensor_id;sensor_type;location;lat;lon;timestamp;pressure;altitude;pressure_sealevel;temperature;humidity
75699;BME280;64313;51.018;13.742;2023-01-23T00:02:04;101316.25;;;0.96;87.61
75699;BME280;64313;51.018;13.742;2023-01-23T00:04:30;101321.66;;;0.94;87.56
75699;BME280;64313;51.018;13.742;2023-01-23T00:06:55;101325.31;;;0.92;87.53
75699;BME280;64313;51.018;13.742;2023-01-23T00:09:20;101328.78;;;0.92;87.82
75699;BME280;64313;51.018;13.742;2023-01-23T00:11:46;101324.47;;;0.91;88.08
75699;BME280;64313;51.018;13.742;2023-01-23T00:14:11;101333.22;;;0.92;87.66
75699;BME280;64313;51.018;13.742;2023-01-23T00:16:36;101326.25;;;0.91;87.79
75699;BME280;64313;51.018;13.742;2023-01-23T00:19:02;101324.38;;;0.93;87.83
75699;BME280;64313;51.018;13.742;2023-01-23T00:21:28;101331.41;;;0.92;87.87
75699;BME280;64313;51.018;13.742;2023-01-23T00:23:55;101326.06;;;0.94;87.77
75699;BME280;64313;51.018;13.742;2023-01-23T00:26:24;101334.06;;;0.92;87.88
75699;BME280;64313;51.018;13.742;2023-01-23T00:28:50;101336.69;;;0.92;87.68
75699;BME280;64313;51.018;13.742;2023-01-23T00:31:19;101337.63;;;0.91;87.97
75699;BME280;64313;51.018;13.742;2023-01-23T00:33:47;101335.94;;;0.90;87.94
75699;BME280;64313;51.018;13.742;2023-01-23T00:36:16;101339.53;;;0.89;88.06
75699;BME280;64313;51.018;13.742;2023-01-23T00:38:42;101338.47;;;0.92;87.83
75699;BME280;64313;51.018;13.742;2023-01-23T00:41:07;101333.22;;;0.92;88.04
75699;BME280;64313;51.018;13.742;2023-01-23T00:43:32;101334.88;;;0.93;87.60
75699;BME280;64313;51.018;13.742;2023-01-23T00:45:58;101335.72;;;0.93;87.23
75699;BME280;64313;51.018;13.742;2023-01-23T00:48:24;101335.66;;;0.95;87.50
75699;BME280;64313;51.018;13.742;2023-01-23T00:50:49;101336.59;;;0.94;88.10
75699;BME280;64313;51.018;13.742;2023-01-23T00:53:15;101341.00;;;0.93;88.15
75699;BME280;64313;51.018;13.742;2023-01-23T00:55:40;101345.41;;;0.93;87.90
75699;BME280;64313;51.018;13.742;2023-01-23T00:58:07;101347.97;;;0.94;87.79
75699;BME280;64313;51.018;13.742;2023-01-23T01:00:35;101350.59;;;0.94;87.92
75699;BME280;64313;51.018;13.742;2023-01-23T01:03:01;101343.53;;;0.95;87.79
75699;BME280;64313;51.018;13.742;2023-01-23T01:05:26;101340.06;;;0.94;88.14
75699;BME280;64313;51.018;13.742;2023-01-23T01:07:51;101352.47;;;0.92;88.34
75699;BME280;64313;51.018;13.742;2023-01-23T01:10:17;101360.28;;;0.94;88.02
75699;BME280;64313;51.018;13.742;2023-01-23T01:12:42;101369.94;;;0.93;87.59
75699;BME280;64313;51.018;13.742;2023-01-23T01:15:08;101370.91;;;0.92;88.10
75699;BME280;64313;51.018;13.742;2023-01-23T01:17:34;101363.97;;;0.91;88.33
75699;BME280;64313;51.018;13.742;2023-01-23T01:20:00;101361.22;;;0.93;87.93
75699;BME280;64313;51.018;13.742;2023-01-23T01:22:26;101366.41;;;0.94;87.95
75699;BME280;64313;51.018;13.742;2023-01-23T01:24:51;101369.03;;;0.94;87.92
75699;BME280;64313;51.018;13.742;2023-01-23T01:27:16;101363.84;;;0.93;88.19
75699;BME280;64313;51.018;13.742;2023-01-23T01:29:42;101367.31;;;0.93;88.15
75699;BME280;64313;51.018;13.742;2023-01-23T01:32:07;101372.59;;;0.93;88.46
75699;BME280;64313;51.018;13.742;2023-01-23T01:34:32;101374.28;;;0.94;88.28
75699;BME280;64313;51.018;13.742;2023-01-23T01:36:58;101376.19;;;0.92;88.07
75699;BME280;64313;51.018;13.742;2023-01-23T01:39:23;101382.19;;;0.94;88.53
75699;BME280;64313;51.018;13.742;2023-01-23T01:41:49;101383.03;;;0.95;87.92
75699;BME280;64313;51.018;13.742;2023-01-23T01:44:19;101377.84;;;0.93;88.01
75699;BME280;64313;51.018;13.742;2023-01-23T01:46:45;101386.50;;;0.95;88.51
75699;BME280;64313;51.018;13.742;2023-01-23T01:49:22;101391.78;;;0.95;88.23
75699;BME280;64313;51.018;13.742;2023-01-23T01:54:32;101403.81;;;0.99;88.30
75699;BME280;64313;51.018;13.742;2023-01-23T01:57:19;101403.81;;;0.99;88.31
75699;BME280;64313;51.018;13.742;2023-01-23T02:02:41;101409.72;;;1.03;88.13
75699;BME280;64313;51.018;13.742;2023-01-23T02:05:17;101408.69;;;1.05;87.48
75699;BME280;64313;51.018;13.742;2023-01-23T02:07:50;101413.03;;;1.06;87.70
75699;BME280;64313;51.018;13.742;2023-01-23T02:10:18;101416.50;;;1.07;87.95
75699;BME280;64313;51.018;13.742;2023-01-23T02:12:45;101419.06;;;1.08;87.67
75699;BME280;64313;51.018;13.742;2023-01-23T02:15:11;101420.72;;;1.10;87.68
75699;BME280;64313;51.018;13.742;2023-01-23T02:17:36;101422.41;;;1.11;87.66
75699;BME280;64313;51.018;13.742;2023-01-23T02:20:23;101425.03;;;1.11;87.49
75699;BME280;64313;51.018;13.742;2023-01-23T02:28:14;101426.00;;;1.10;87.64
75699;BME280;64313;51.018;13.742;2023-01-23T02:30:41;101420.09;;;1.06;87.62
75699;BME280;64313;51.018;13.742;2023-01-23T02:35:44;101430.69;;;1.04;88.10
75699;BME280;64313;51.018;13.742;2023-01-23T02:38:11;101426.38;;;1.03;88.21
75699;BME280;64313;51.018;13.742;2023-01-23T02:40:39;101428.06;;;1.04;87.69
75699;BME280;64313;51.018;13.742;2023-01-23T02:43:15;101434.94;;;1.07;87.79
75699;BME280;64313;51.018;13.742;2023-01-23T02:45:52;101435.69;;;1.09;87.65
75699;BME280;64313;51.018;13.742;2023-01-23T02:48:17;101437.38;;;1.10;87.50
75699;BME280;64313;51.018;13.742;2023-01-23T02:50:43;101442.34;;;1.15;87.35
75699;BME280;64313;51.018;13.742;2023-01-23T02:53:10;101433.91;;;1.10;87.33
75699;BME280;64313;51.018;13.742;2023-01-23T02:55:36;101438.13;;;1.12;87.33
75699;BME280;64313;51.018;13.742;2023-01-23T02:58:03;101438.19;;;1.11;87.27
75699;BME280;64313;51.018;13.742;2023-01-23T03:00:48;101436.53;;;1.10;87.56
75699;BME280;64313;51.018;13.742;2023-01-23T03:03:14;101439.91;;;1.12;87.60
75699;BME280;64313;51.018;13.742;2023-01-23T03:05:40;101426.75;;;1.12;87.50
75699;BME280;64313;51.018;13.742;2023-01-23T03:08:05;101424.97;;;1.12;87.62
75699;BME280;64313;51.018;13.742;2023-01-23T03:10:31;101424.13;;;1.12;87.40
75699;BME280;64313;51.018;13.742;2023-01-23T03:12:56;101412.63;;;1.13;87.62
75699;BME280;64313;51.018;13.742;2023-01-23T03:15:26;101403.03;;;1.12;87.53
75699;BME280;64313;51.018;13.742;2023-01-23T03:17:52;101403.88;;;1.12;87.69
75699;BME280;64313;51.018;13.742;2023-01-23T03:20:18;101400.50;;;1.10;87.87
75699;BME280;64313;51.018;13.742;2023-01-23T03:22:48;101407.56;;;1.10;87.73
75699;BME280;64313;51.018;13.742;2023-01-23T03:25:14;101394.41;;;1.10;87.49
75699;BME280;64313;51.018;13.742;2023-01-23T03:27:39;101408.41;;;1.10;87.71
75699;BME280;64313;51.018;13.742;2023-01-23T03:30:05;101410.19;;;1.10;87.71
75699;BME280;64313;51.018;13.742;2023-01-23T03:32:39;101419.22;;;1.05;87.74
75699;BME280;64313;51.018;13.742;2023-01-23T03:35:06;101420.94;;;1.06;87.41
75699;BME280;64313;51.018;13.742;2023-01-23T03:37:32;101421.13;;;1.03;87.81
75699;BME280;64313;51.018;13.742;2023-01-23T03:39:57;101430.91;;;1.01;88.14
75699;BME280;64313;51.018;13.742;2023-01-23T03:42:42;101431.75;;;1.02;87.70
75699;BME280;64313;51.018;13.742;2023-01-23T03:45:10;101436.06;;;1.03;87.84
75699;BME280;64313;51.018;13.742;2023-01-23T03:47:35;101436.91;;;1.03;87.39
75699;BME280;64313;51.018;13.742;2023-01-23T03:50:01;101431.34;;;1.08;87.32
75699;BME280;64313;51.018;13.742;2023-01-23T03:52:29;101440.13;;;1.08;87.69
75699;BME280;64313;51.018;13.742;2023-01-23T03:54:56;101439.34;;;1.06;87.54
75699;BME280;64313;51.018;13.742;2023-01-23T03:57:21;101437.66;;;1.05;87.75
75699;BME280;64313;51.018;13.742;2023-01-23T04:00:11;101443.88;;;1.04;87.87
75699;BME280;64313;51.018;13.742;2023-01-23T04:02:44;101448.19;;;1.05;87.76
75699;BME280;64313;51.018;13.742;2023-01-23T04:05:18;101445.66;;;1.04;87.86
75699;BME280;64313;51.018;13.742;2023-01-23T04:07:43;101446.59;;;1.03;87.83
75699;BME280;64313;51.018;13.742;2023-01-23T04:10:09;101449.13;;;1.04;87.81
75699;BME280;64313;51.018;13.742;2023-01-23T04:12:35;101454.41;;;1.04;88.16
75699;BME280;64313;51.018;13.742;2023-01-23T04:15:00;101457.78;;;1.06;87.83
75699;BME280;64313;51.018;13.742;2023-01-23T04:17:26;101456.75;;;1.09;87.55
75699;BME280;64313;51.018;13.742;2023-01-23T04:19:51;101458.44;;;1.10;87.58
75699;BME280;64313;51.018;13.742;2023-01-23T04:22:17;101459.19;;;1.12;87.43
75699;BME280;64313;51.018;13.742;2023-01-23T04:24:46;101456.47;;;1.14;87.29
75699;BME280;64313;51.018;13.742;2023-01-23T04:27:12;101463.41;;;1.15;87.27
75699;BME280;64313;51.018;13.742;2023-01-23T04:29:38;101467.72;;;1.16;87.03
75699;BME280;64313;51.018;13.742;2023-01-23T04:32:03;101462.56;;;1.14;86.81
75699;BME280;64313;51.018;13.742;2023-01-23T04:34:31;101468.69;;;1.15;87.15
75699;BME280;64313;51.018;13.742;2023-01-23T04:36:57;101461.75;;;1.14;87.20
75699;BME280;64313;51.018;13.742;2023-01-23T04:39:23;101465.22;;;1.14;87.37
75699;BME280;64313;51.018;13.742;2023-01-23T04:41:49;101465.22;;;1.14;86.93
75699;BME280;64313;51.018;13.742;2023-01-23T04:44:25;101474.16;;;1.12;87.46
75699;BME280;64313;51.018;13.742;2023-01-23T04:47:20;101482.97;;;1.11;86.86
75699;BME280;64313;51.018;13.742;2023-01-23T04:49:46;101485.59;;;1.11;87.01
75699;BME280;64313;51.018;13.742;2023-01-23T04:52:12;101481.28;;;1.10;87.13
75699;BME280;64313;51.018;13.742;2023-01-23T04:54:42;101476.03;;;1.10;87.04
75699;BME280;64313;51.018;13.742;2023-01-23T04:57:08;101481.28;;;1.10;87.12
75699;BME280;64313;51.018;13.742;2023-01-23T04:59:33;101486.47;;;1.11;87.05
75699;BME280;64313;51.018;13.742;2023-01-23T05:01:58;101481.94;;;1.13;87.32
75699;BME280;64313;51.018;13.742;2023-01-23T05:04:29;101482.06;;;1.12;87.31
75699;BME280;64313;51.018;13.742;2023-01-23T05:06:55;101486.47;;;1.11;86.93
75699;BME280;64313;51.018;13.742;2023-01-23T05:09:20;101480.34;;;1.11;87.48
75699;BME280;64313;51.018;13.742;2023-01-23T05:11:50;101480.34;;;1.11;87.10
75699;BME280;64313;51.018;13.742;2023-01-23T05:14:16;101483.84;;;1.11;87.31
75699;BME280;64313;51.018;13.742;2023-01-23T05:16:44;101489.19;;;1.10;86.87
75699;BME280;64313;51.018;13.742;2023-01-23T05:19:16;101494.47;;;1.10;87.25
75699;BME280;64313;51.018;13.742;2023-01-23T05:21:42;101492.84;;;1.07;87.46
75699;BME280;64313;51.018;13.742;2023-01-23T05:24:12;101498.88;;;1.09;87.10
75699;BME280;64313;51.018;13.742;2023-01-23T05:26:37;101495.41;;;1.08;87.53
75699;BME280;64313;51.018;13.742;2023-01-23T05:29:03;101497.28;;;1.06;87.16
75699;BME280;64313;51.018;13.742;2023-01-23T05:31:30;101492.84;;;1.07;87.20
75699;BME280;64313;51.018;13.742;2023-01-23T05:34:31;101499.91;;;1.06;87.67
75699;BME280;64313;51.018;13.742;2023-01-23T05:37:00;101499.16;;;1.04;87.53
75699;BME280;64313;51.018;13.742;2023-01-23T05:39:26;101494.66;;;1.06;87.73
75699;BME280;64313;51.018;13.742;2023-01-23T05:41:51;101491.25;;;1.04;87.42
75699;BME280;64313;51.018;13.742;2023-01-23T05:44:29;101497.47;;;1.03;87.68
75699;BME280;64313;51.018;13.742;2023-01-23T05:47:02;101491.25;;;1.04;87.40
75699;BME280;64313;51.018;13.742;2023-01-23T05:49:27;101505.19;;;1.06;87.87
75699;BME280;64313;51.018;13.742;2023-01-23T05:51:54;101509.63;;;1.06;87.61
75699;BME280;64313;51.018;13.742;2023-01-23T05:54:19;101504.34;;;1.06;87.48
75699;BME280;64313;51.018;13.742;2023-01-23T05:56:45;101503.41;;;1.07;87.49
75699;BME280;64313;51.018;13.742;2023-01-23T05:59:31;101507.81;;;1.06;87.36
75699;BME280;64313;51.018;13.742;2023-01-23T06:02:16;101510.25;;;1.10;87.37
75699;BME280;64313;51.018;13.742;2023-01-23T06:05:04;101517.13;;;1.12;87.33
75699;BME280;64313;51.018;13.742;2023-01-23T06:07:50;101515.44;;;1.11;87.01
75699;BME280;64313;51.018;13.742;2023-01-23T06:10:16;101519.84;;;1.11;87.45
75699;BME280;64313;51.018;13.742;2023-01-23T06:12:41;101522.47;;;1.11;87.25
75699;BME280;64313;51.018;13.742;2023-01-23T06:15:07;101525.03;;;1.12;87.22
75699;BME280;64313;51.018;13.742;2023-01-23T06:17:33;101520.53;;;1.14;87.14
75699;BME280;64313;51.018;13.742;2023-01-23T06:19:58;101522.13;;;1.17;87.20
75699;BME280;64313;51.018;13.742;2023-01-23T06:22:24;101527.56;;;1.14;87.10
75699;BME280;64313;51.018;13.742;2023-01-23T06:24:59;101524.84;;;1.15;87.02
75699;BME280;64313;51.018;13.742;2023-01-23T06:27:24;101528.41;;;1.14;87.37
75699;BME280;64313;51.018;13.742;2023-01-23T06:29:50;101526.63;;;1.15;87.28
75699;BME280;64313;51.018;13.742;2023-01-23T06:32:16;101532.53;;;1.18;86.72
75699;BME280;64313;51.018;13.742;2023-01-23T06:34:41;101529.19;;;1.16;87.18
75699;BME280;64313;51.018;13.742;2023-01-23T06:37:12;101544.66;;;1.21;87.10
75699;BME280;64313;51.018;13.742;2023-01-23T06:39:40;101536.88;;;1.19;86.86
75699;BME280;64313;51.018;13.742;2023-01-23T06:42:07;101540.34;;;1.20;86.94
75699;BME280;64313;51.018;13.742;2023-01-23T06:44:37;101551.94;;;1.17;87.20
75699;BME280;64313;51.018;13.742;2023-01-23T06:47:03;101552.97;;;1.15;86.88
75699;BME280;64313;51.018;13.742;2023-01-23T06:49:29;101559.06;;;1.15;86.92
75699;BME280;64313;51.018;13.742;2023-01-23T06:51:55;101552.00;;;1.16;86.83
75699;BME280;64313;51.018;13.742;2023-01-23T06:54:22;101555.59;;;1.15;86.84
75699;BME280;64313;51.018;13.742;2023-01-23T06:56:48;101566.13;;;1.15;86.88
75699;BME280;64313;51.018;13.742;2023-01-23T06:59:14;101568.75;;;1.15;87.12
75699;BME280;64313;51.018;13.742;2023-01-23T07:01:41;101569.72;;;1.14;86.93
75699;BME280;64313;51.018;13.742;2023-01-23T07:04:25;101570.56;;;1.14;86.98
75699;BME280;64313;51.018;13.742;2023-01-23T07:06:50;101575.91;;;1.13;87.07
75699;BME280;64313;51.018;13.742;2023-01-23T07:09:17;101571.59;;;1.12;87.12
75699;BME280;64313;51.018;13.742;2023-01-23T07:11:49;101576.94;;;1.10;86.76
75699;BME280;64313;51.018;13.742;2023-01-23T07:14:15;101587.47;;;1.10;87.41
75699;BME280;64313;51.018;13.742;2023-01-23T07:16:42;101597.09;;;1.11;87.13
75699;BME280;64313;51.018;13.742;2023-01-23T07:19:07;101599.59;;;1.13;87.13
75699;BME280;64313;51.018;13.742;2023-01-23T07:21:36;101601.31;;;1.14;86.93
75699;BME280;64313;51.018;13.742;2023-01-23T07:24:01;101609.09;;;1.15;86.82
75699;BME280;64313;51.018;13.742;2023-01-23T07:26:26;101613.34;;;1.18;87.20
75699;BME280;64313;51.018;13.742;2023-01-23T07:28:52;101622.97;;;1.19;87.09
75699;BME280;64313;51.018;13.742;2023-01-23T07:31:18;101632.47;;;1.21;86.65
75699;BME280;64313;51.018;13.742;2023-01-23T07:33:43;101632.34;;;1.23;86.96
75699;BME280;64313;51.018;13.742;2023-01-23T07:36:09;101625.28;;;1.23;87.06
75699;BME280;64313;51.018;13.742;2023-01-23T07:38:34;101637.53;;;1.24;86.92
75699;BME280;64313;51.018;13.742;2023-01-23T07:41:00;101636.50;;;1.27;86.56
75699;BME280;64313;51.018;13.742;2023-01-23T07:43:26;101637.28;;;1.29;86.57
75699;BME280;64313;51.018;13.742;2023-01-23T07:45:51;101632.00;;;1.29;86.19
75699;BME280;64313;51.018;13.742;2023-01-23T07:48:16;101640.75;;;1.29;86.61
75699;BME280;64313;51.018;13.742;2023-01-23T07:50:42;101641.59;;;1.30;86.29
75699;BME280;64313;51.018;13.742;2023-01-23T07:53:07;101643.38;;;1.29;86.75
75699;BME280;64313;51.018;13.742;2023-01-23T07:55:33;101647.97;;;1.26;86.87
75699;BME280;64313;51.018;13.742;2023-01-23T07:58:01;101649.75;;;1.25;87.03
75699;BME280;64313;51.018;13.742;2023-01-23T08:00:26;101653.22;;;1.26;86.51
75699;BME280;64313;51.018;13.742;2023-01-23T08:02:52;101652.31;;;1.27;86.87
75699;BME280;64313;51.018;13.742;2023-01-23T08:05:17;101649.69;;;1.27;86.54
75699;BME280;64313;51.018;13.742;2023-01-23T08:07:42;101646.09;;;1.28;86.97
75699;BME280;64313;51.018;13.742;2023-01-23T08:10:08;101645.06;;;1.30;86.92
75699;BME280;64313;51.018;13.742;2023-01-23T08:12:34;101641.50;;;1.32;86.55
75699;BME280;64313;51.018;13.742;2023-01-23T08:14:59;101654.56;;;1.33;86.36
75699;BME280;64313;51.018;13.742;2023-01-23T08:17:24;101652.81;;;1.34;86.43
75699;BME280;64313;51.018;13.742;2023-01-23T08:19:50;101655.44;;;1.34;86.69
75699;BME280;64313;51.018;13.742;2023-01-23T08:22:15;101658.16;;;1.32;86.23
75699;BME280;64313;51.018;13.742;2023-01-23T08:24:40;101654.75;;;1.30;86.39
75699;BME280;64313;51.018;13.742;2023-01-23T08:27:06;101664.38;;;1.31;86.66
75699;BME280;64313;51.018;13.742;2023-01-23T08:29:31;101662.59;;;1.32;86.47
75699;BME280;64313;51.018;13.742;2023-01-23T08:31:58;101651.19;;;1.31;86.61
75699;BME280;64313;51.018;13.742;2023-01-23T08:42:08;101655.44;;;1.34;86.22
75699;BME280;64313;51.018;13.742;2023-01-23T08:44:33;101657.97;;;1.35;86.12
75699;BME280;64313;51.018;13.742;2023-01-23T08:47:00;101656.28;;;1.34;86.69
75699;BME280;64313;51.018;13.742;2023-01-23T08:49:26;101667.66;;;1.35;86.21
75699;BME280;64313;51.018;13.742;2023-01-23T08:51:51;101664.19;;;1.34;86.00
75699;BME280;64313;51.018;13.742;2023-01-23T08:54:17;101661.44;;;1.36;86.17
75699;BME280;64313;51.018;13.742;2023-01-23T08:56:42;101664.25;;;1.33;86.16
75699;BME280;64313;51.018;13.742;2023-01-23T08:59:07;101666.13;;;1.30;86.61
75699;BME280;64313;51.018;13.742;2023-01-23T09:01:33;101664.47;;;1.29;86.79
75699;BME280;64313;51.018;13.742;2023-01-23T09:03:58;101673.13;;;1.32;86.52
75699;BME280;64313;51.018;13.742;2023-01-23T09:06:23;101667.75;;;1.33;86.40
75699;BME280;64313;51.018;13.742;2023-01-23T09:08:49;101671.13;;;1.35;86.49
75699;BME280;64313;51.018;13.742;2023-01-23T09:11:15;101667.84;;;1.32;86.28
75699;BME280;64313;51.018;13.742;2023-01-23T09:13:41;101669.53;;;1.33;86.87
75699;BME280;64313;51.018;13.742;2023-01-23T09:16:07;101674.81;;;1.33;86.57
75699;BME280;64313;51.018;13.742;2023-01-23T09:18:33;101677.25;;;1.36;86.40
75699;BME280;64313;51.018;13.742;2023-01-23T09:20:58;101684.31;;;1.35;86.61
75699;BME280;64313;51.018;13.742;2023-01-23T09:23:23;101677.25;;;1.36;86.43
75699;BME280;64313;51.018;13.742;2023-01-23T09:25:49;101690.25;;;1.39;86.35
75699;BME280;64313;51.018;13.742;2023-01-23T09:28:15;101694.66;;;1.38;86.27
75699;BME280;64313;51.018;13.742;2023-01-23T09:30:40;101689.38;;;1.38;85.90
75699;BME280;64313;51.018;13.742;2023-01-23T09:33:07;101691.09;;;1.39;86.01
75699;BME280;64313;51.018;13.742;2023-01-23T09:35:33;101689.22;;;1.41;86.32
75699;BME280;64313;51.018;13.742;2023-01-23T09:37:59;101689.22;;;1.41;86.13
75699;BME280;64313;51.018;13.742;2023-01-23T09:48:43;101692.44;;;1.46;86.67
75699;BME280;64313;51.018;13.742;2023-01-23T09:51:28;101680.00;;;1.48;86.48
75699;BME280;64313;51.018;13.742;2023-01-23T09:53:59;101678.97;;;1.51;85.95
75699;BME280;64313;51.018;13.742;2023-01-23T09:56:35;101676.16;;;1.54;85.69
75699;BME280;64313;51.018;13.742;2023-01-23T09:59:24;101674.25;;;1.56;86.20
75699;BME280;64313;51.018;13.742;2023-01-23T10:01:51;101677.78;;;1.57;85.92
75699;BME280;64313;51.018;13.742;2023-01-23T10:04:18;101680.56;;;1.54;86.12
75699;BME280;64313;51.018;13.742;2023-01-23T10:07:00;101676.25;;;1.52;86.11
75699;BME280;64313;51.018;13.742;2023-01-23T10:12:30;101670.13;;;1.52;85.86
75699;BME280;64313;51.018;13.742;2023-01-23T10:15:21;101673.69;;;1.51;86.20
75699;BME280;64313;51.018;13.742;2023-01-23T10:18:01;101664.03;;;1.51;86.44
75699;BME280;64313;51.018;13.742;2023-01-23T10:20:43;101664.09;;;1.50;86.01
75699;BME280;64313;51.018;13.742;2023-01-23T10:23:28;101668.44;;;1.51;86.26
75699;BME280;64313;51.018;13.742;2023-01-23T10:25:56;101664.03;;;1.51;86.19
75699;BME280;64313;51.018;13.742;2023-01-23T10:28:33;101668.25;;;1.54;85.81
75699;BME280;64313;51.018;13.742;2023-01-23T10:31:30;101670.91;;;1.54;86.33
75699;BME280;64313;51.018;13.742;2023-01-23T10:34:10;101666.47;;;1.55;85.98
75699;BME280;64313;51.018;13.742;2023-01-23T10:39:41;101671.94;;;1.51;86.51
75699;BME280;64313;51.018;13.742;2023-01-23T10:42:11;101672.50;;;1.57;86.36
75699;BME280;64313;51.018;13.742;2023-01-23T10:44:37;101669.75;;;1.58;86.32
75699;BME280;64313;51.018;13.742;2023-01-23T10:47:17;101669.75;;;1.58;86.29
75699;BME280;64313;51.018;13.742;2023-01-23T10:49:44;101661.66;;;1.61;85.65
75699;BME280;64313;51.018;13.742;2023-01-23T10:52:29;101670.31;;;1.63;85.92
75699;BME280;64313;51.018;13.742;2023-01-23T10:54:55;101671.34;;;1.61;85.65
75699;BME280;64313;51.018;13.742;2023-01-23T10:57:23;101674.94;;;1.60;85.62
75699;BME280;64313;51.018;13.742;2023-01-23T10:59:58;101666.09;;;1.61;85.43
75699;BME280;64313;51.018;13.742;2023-01-23T11:02:33;101667.69;;;1.63;85.86
75699;BME280;64313;51.018;13.742;2023-01-23T11:05:00;101664.00;;;1.66;85.92
75699;BME280;64313;51.018;13.742;2023-01-23T11:07:28;101663.09;;;1.67;85.90
75699;BME280;64313;51.018;13.742;2023-01-23T11:10:00;101672.69;;;1.68;85.33
75699;BME280;64313;51.018;13.742;2023-01-23T11:12:28;101652.56;;;1.67;86.04
75699;BME280;64313;51.018;13.742;2023-01-23T11:17:45;101657.63;;;1.70;85.70
75699;BME280;64313;51.018;13.742;2023-01-23T11:20:22;101655.06;;;1.68;85.64
75699;BME280;64313;51.018;13.742;2023-01-23T11:28:25;101653.88;;;1.74;85.43
75699;BME280;64313;51.018;13.742;2023-01-23T11:36:54;101659.50;;;1.68;85.44
75699;BME280;64313;51.018;13.742;2023-01-23T11:39:47;101657.72;;;1.68;85.45
75699;BME280;64313;51.018;13.742;2023-01-23T11:42:14;101654.91;;;1.71;85.38
75699;BME280;64313;51.018;13.742;2023-01-23T11:44:41;101655.75;;;1.72;85.71
75699;BME280;64313;51.018;13.742;2023-01-23T11:47:23;101655.56;;;1.75;85.19
75699;BME280;64313;51.018;13.742;2023-01-23T11:58:27;101638.69;;;1.78;84.29
75699;BME280;64313;51.018;13.742;2023-01-23T12:10:02;101635.41;;;1.74;85.06
75699;BME280;64313;51.018;13.742;2023-01-23T12:12:50;101630.03;;;1.76;84.96
75699;BME280;64313;51.018;13.742;2023-01-23T12:18:23;101632.59;;;1.77;85.20
75699;BME280;64313;51.018;13.742;2023-01-23T12:21:02;101626.38;;;1.78;84.85
75699;BME280;64313;51.018;13.742;2023-01-23T12:23:43;101627.13;;;1.80;84.96
75699;BME280;64313;51.018;13.742;2023-01-23T12:26:14;101628.81;;;1.81;84.80
75699;BME280;64313;51.018;13.742;2023-01-23T12:31:54;101634.75;;;1.85;84.64
75699;BME280;64313;51.018;13.742;2023-01-23T12:37:25;101635.38;;;1.88;84.35
75699;BME280;64313;51.018;13.742;2023-01-23T12:40:02;101640.66;;;1.88;84.46
75699;BME280;64313;51.018;13.742;2023-01-23T12:42:39;101637.09;;;1.89;84.36
75699;BME280;64313;51.018;13.742;2023-01-23T12:45:21;101633.50;;;1.90;84.25
75699;BME280;64313;51.018;13.742;2023-01-23T12:50:51;101635.31;;;1.90;84.28
75699;BME280;64313;51.018;13.742;2023-01-23T12:53:19;101634.47;;;1.89;84.32
75699;BME280;64313;51.018;13.742;2023-01-23T12:56:10;101641.41;;;1.90;84.05
75699;BME280;64313;51.018;13.742;2023-01-23T12:58:56;101639.63;;;1.91;84.29
75699;BME280;64313;51.018;13.742;2023-01-23T13:02:27;101635.19;;;1.91;84.34
75699;BME280;64313;51.018;13.742;2023-01-23T13:04:45;101632.56;;;1.91;84.67
75699;BME280;64313;51.018;13.742;2023-01-23T13:07:35;101643.09;;;1.91;84.88
75699;BME280;64313;51.018;13.742;2023-01-23T13:10:23;101638.97;;;1.87;84.71
75699;BME280;64313;51.018;13.742;2023-01-23T13:13:11;101645.94;;;1.88;85.12
75699;BME280;64313;51.018;13.742;2023-01-23T13:15:37;101646.06;;;1.87;85.40
75699;BME280;64313;51.018;13.742;2023-01-23T13:18:02;101650.66;;;1.83;85.35
75699;BME280;64313;51.018;13.742;2023-01-23T13:20:31;101641.91;;;1.83;85.13
75699;BME280;64313;51.018;13.742;2023-01-23T13:23:42;101642.84;;;1.82;85.30
75699;BME280;64313;51.018;13.742;2023-01-23T13:26:23;101645.38;;;1.83;84.92
75699;BME280;64313;51.018;13.742;2023-01-23T13:31:36;101653.28;;;1.83;85.31
75699;BME280;64313;51.018;13.742;2023-01-23T13:36:50;101661.41;;;1.80;84.93
75699;BME280;64313;51.018;13.742;2023-01-23T13:42:31;101650.09;;;1.78;85.08
75699;BME280;64313;51.018;13.742;2023-01-23T13:44:34;101649.63;;;1.71;85.13
75699;BME280;64313;51.018;13.742;2023-01-23T13:52:44;101654.44;;;1.65;85.09
75699;BME280;64313;51.018;13.742;2023-01-23T13:55:33;101661.66;;;1.61;85.80
75699;BME280;64313;51.018;13.742;2023-01-23T13:58:24;101655.53;;;1.61;85.89
75699;BME280;64313;51.018;13.742;2023-01-23T14:01:10;101654.97;;;1.56;86.24
75699;BME280;64313;51.018;13.742;2023-01-23T14:04:00;101646.16;;;1.57;85.84
75699;BME280;64313;51.018;13.742;2023-01-23T14:07:01;101653.28;;;1.55;86.50
75699;BME280;64313;51.018;13.742;2023-01-23T14:09:29;101654.06;;;1.57;86.21
75699;BME280;64313;51.018;13.742;2023-01-23T14:12:00;101645.94;;;1.60;85.76
75699;BME280;64313;51.018;13.742;2023-01-23T14:14:33;101647.63;;;1.61;85.60
75699;BME280;64313;51.018;13.742;2023-01-23T14:17:19;101647.63;;;1.61;85.76
75699;BME280;64313;51.018;13.742;2023-01-23T14:20:05;101651.22;;;1.60;85.90
75699;BME280;64313;51.018;13.742;2023-01-23T14:22:36;101654.97;;;1.56;85.94
75699;BME280;64313;51.018;13.742;2023-01-23T14:25:11;101652.34;;;1.56;86.44
75699;BME280;64313;51.018;13.742;2023-01-23T14:27:38;101654.97;;;1.56;86.25
75699;BME280;64313;51.018;13.742;2023-01-23T14:30:14;101663.16;;;1.51;86.49
75699;BME280;64313;51.018;13.742;2023-01-23T14:32:40;101656.19;;;1.50;86.28
75699;BME280;64313;51.018;13.742;2023-01-23T14:35:23;101661.28;;;1.53;86.65
75699;BME280;64313;51.018;13.742;2023-01-23T14:37:49;101663.84;;;1.55;86.68
75699;BME280;64313;51.018;13.742;2023-01-23T14:40:19;101667.50;;;1.52;86.73